sensor_id;sensor_type;location;lat;lon;timestamp;temperature;humidity
8481;DHT22;4277;51.354;6.740;2022-10-19T08:20:26;9.60;99.90
8481;DHT22;4277;51.354;6.740;2022-10-19T08:22:51;9.80;99.90
8481;DHT22;4277;51.354;6.740;2022-10-19T08:25:17;9.90;99.90
8481;DHT22;4277;51.354;6.740;2022-10-19T08:27:42;9.90;99.90
8481;DHT22;4277;51.354;6.740;2022-10-19T08:30:08;10.00;99.90
8481;DHT22;4277;51.354;6.740;2022-10-19T08:32:34;10.10;99.90
8481;DHT22;4277;51.354;6.740;2022-10-19T08:34:59;10.10;99.90
8481;DHT22;4277;51.354;6.740;2022-10-19T08:37:25;10.10;99.90
8481;DHT22;4277;51.354;6.740;2022-10-19T08:39:50;10.20;99.90
8481;DHT22;4277;51.354;6.740;2022-10-19T09:05:31;10.70;99.90
8481;DHT22;4277;51.354;6.740;2022-10-19T09:07:59;10.80;99.90
8481;DHT22;4277;51.354;6.740;2022-10-19T09:10:28;10.90;99.90
8481;DHT22;4277;51.354;6.740;2022-10-19T09:13:01;11.00;99.90
8481;DHT22;4277;51.354;6.740;2022-10-19T09:15:40;11.10;99.90
8481;DHT22;4277;51.354;6.740;2022-10-19T09:18:21;11.10;99.90
8481;DHT22;4277;51.354;6.740;2022-10-19T09:20:49;11.20;99.90
8481;DHT22;4277;51.354;6.740;2022-10-19T09:23:20;11.30;99.90
8481;DHT22;4277;51.354;6.740;2022-10-19T09:25:51;11.30;99.90
8481;DHT22;4277;51.354;6.740;2022-10-19T09:31:33;11.40;99.90
8481;DHT22;4277;51.354;6.740;2022-10-19T09:34:13;11.40;99.90
8481;DHT22;4277;51.354;6.740;2022-10-19T09:36:41;11.50;99.90
8481;DHT22;4277;51.354;6.740;2022-10-19T09:39:11;11.50;99.90
8481;DHT22;4277;51.354;6.740;2022-10-19T09:41:49;11.50;99.90
8481;DHT22;4277;51.354;6.740;2022-10-19T09:44:15;11.50;99.90
8481;DHT22;4277;51.354;6.740;2022-10-19T09:52:03;11.70;99.90
8481;DHT22;4277;51.354;6.740;2022-10-19T09:54:34;11.70;99.90
8481;DHT22;4277;51.354;6.740;2022-10-19T09:57:00;11.70;99.90
8481;DHT22;4277;51.354;6.740;2022-10-19T09:59:29;11.70;99.90
8481;DHT22;4277;51.354;6.740;2022-10-19T10:02:14;11.80;99.90
8481;DHT22;4277;51.354;6.740;2022-10-19T10:04:39;11.80;99.90
8481;DHT22;4277;51.354;6.740;2022-10-19T10:07:05;11.80;99.90
8481;DHT22;4277;51.354;6.740;2022-10-19T10:09:33;11.90;99.90
8481;DHT22;4277;51.354;6.740;2022-10-19T10:12:03;12.00;99.90
8481;DHT22;4277;51.354;6.740;2022-10-19T10:14:31;12.00;99.90
8481;DHT22;4277;51.354;6.740;2022-10-19T10:19:30;12.00;99.90
8481;DHT22;4277;51.354;6.740;2022-10-19T10:21:57;12.10;99.90
8481;DHT22;4277;51.354;6.740;2022-10-19T10:24:28;12.10;99.90
8481;DHT22;4277;51.354;6.740;2022-10-19T10:26:55;12.20;99.90
8481;DHT22;4277;51.354;6.740;2022-10-19T10:29:28;12.20;99.90
8481;DHT22;4277;51.354;6.740;2022-10-19T10:32:15;12.30;99.90
8481;DHT22;4277;51.354;6.740;2022-10-19T10:35:02;12.30;99.90
8481;DHT22;4277;51.354;6.740;2022-10-19T10:40:03;12.40;99.90
8481;DHT22;4277;51.354;6.740;2022-10-19T10:42:39;12.40;99.90
8481;DHT22;4277;51.354;6.740;2022-10-19T10:45:16;12.40;99.90
8481;DHT22;4277;51.354;6.740;2022-10-19T10:47:42;12.40;99.90
8481;DHT22;4277;51.354;6.740;2022-10-19T10:50:25;12.50;99.90
8481;DHT22;4277;51.354;6.740;2022-10-19T10:53:00;12.50;99.90
8481;DHT22;4277;51.354;6.740;2022-10-19T10:55:27;12.60;99.90
8481;DHT22;4277;51.354;6.740;2022-10-19T10:58:22;12.70;99.90
8481;DHT22;4277;51.354;6.740;2022-10-19T11:00:46;12.80;99.90
8481;DHT22;4277;51.354;6.740;2022-10-19T11:03:24;12.80;99.90
8481;DHT22;4277;51.354;6.740;2022-10-19T11:06:00;12.70;99.90
8481;DHT22;4277;51.354;6.740;2022-10-19T11:08:34;12.80;99.90
8481;DHT22;4277;51.354;6.740;2022-10-19T11:11:23;13.00;99.90
8481;DHT22;4277;51.354;6.740;2022-10-19T11:14:00;13.00;99.90
8481;DHT22;4277;51.354;6.740;2022-10-19T11:16:40;13.00;99.90
8481;DHT22;4277;51.354;6.740;2022-10-19T11:19:18;13.00;99.90
8481;DHT22;4277;51.354;6.740;2022-10-19T11:24:41;13.10;99.90
8481;DHT22;4277;51.354;6.740;2022-10-19T11:35:24;13.20;99.90
8481;DHT22;4277;51.354;6.740;2022-10-19T11:51:34;13.40;99.90
8481;DHT22;4277;51.354;6.740;2022-10-19T11:59:38;13.50;99.90
8481;DHT22;4277;51.354;6.740;2022-10-19T12:04:56;13.70;99.90
8481;DHT22;4277;51.354;6.740;2022-10-19T12:10:23;13.70;99.90
8481;DHT22;4277;51.354;6.740;2022-10-19T12:12:54;13.80;99.90
8481;DHT22;4277;51.354;6.740;2022-10-19T12:15:25;13.90;99.90
8481;DHT22;4277;51.354;6.740;2022-10-19T12:17:56;13.90;99.90
8481;DHT22;4277;51.354;6.740;2022-10-19T12:20:40;13.80;99.90
8481;DHT22;4277;51.354;6.740;2022-10-19T12:23:32;13.80;99.90
8481;DHT22;4277;51.354;6.740;2022-10-19T12:26:01;13.90;99.90
8481;DHT22;4277;51.354;6.740;2022-10-19T12:28:42;13.70;99.90
8481;DHT22;4277;51.354;6.740;2022-10-19T12:31:11;13.80;99.90
8481;DHT22;4277;51.354;6.740;2022-10-19T12:34:01;13.80;99.90
8481;DHT22;4277;51.354;6.740;2022-10-19T12:36:34;13.80;99.90
8481;DHT22;4277;51.354;6.740;2022-10-19T12:47:10;14.00;99.90
8481;DHT22;4277;51.354;6.740;2022-10-19T12:49:50;13.90;99.90
8481;DHT22;4277;51.354;6.740;2022-10-19T12:52:47;14.00;99.90
8481;DHT22;4277;51.354;6.740;2022-10-19T12:57:43;14.20;99.90
8481;DHT22;4277;51.354;6.740;2022-10-19T13:00:21;14.10;99.90
8481;DHT22;4277;51.354;6.740;2022-10-19T13:02:56;14.20;99.90
8481;DHT22;4277;51.354;6.740;2022-10-19T13:05:23;14.20;99.90
8481;DHT22;4277;51.354;6.740;2022-10-19T13:07:50;14.20;99.90
8481;DHT22;4277;51.354;6.740;2022-10-19T13:10:25;14.20;99.90
8481;DHT22;4277;51.354;6.740;2022-10-19T13:12:52;14.10;99.90
8481;DHT22;4277;51.354;6.740;2022-10-19T13:17:59;14.10;99.90
8481;DHT22;4277;51.354;6.740;2022-10-19T13:23:35;14.10;99.90
8481;DHT22;4277;51.354;6.740;2022-10-19T13:26:30;14.20;99.90
8481;DHT22;4277;51.354;6.740;2022-10-19T13:28:56;14.30;99.90
8481;DHT22;4277;51.354;6.740;2022-10-19T13:31:26;14.50;99.90
8481;DHT22;4277;51.354;6.740;2022-10-19T13:33:53;14.50;99.90
8481;DHT22;4277;51.354;6.740;2022-10-19T13:36:19;14.60;99.90
8481;DHT22;4277;51.354;6.740;2022-10-19T13:49:47;14.50;99.90
8481;DHT22;4277;51.354;6.740;2022-10-19T14:04:10;14.10;99.90
8481;DHT22;4277;51.354;6.740;2022-10-19T14:09:19;14.10;99.90
8481;DHT22;4277;51.354;6.740;2022-10-19T14:11:50;14.20;99.90
8481;DHT22;4277;51.354;6.740;2022-10-19T14:14:20;14.20;99.90
8481;DHT22;4277;51.354;6.740;2022-10-19T14:16:47;14.20;99.90
8481;DHT22;4277;51.354;6.740;2022-10-19T14:19:18;14.30;99.90
8481;DHT22;4277;51.354;6.740;2022-10-19T14:21:49;14.40;99.90
8481;DHT22;4277;51.354;6.740;2022-10-19T14:24:40;14.30;99.90
8481;DHT22;4277;51.354;6.740;2022-10-19T14:27:05;14.30;99.90
8481;DHT22;4277;51.354;6.740;2022-10-19T14:29:43;14.20;99.90
8481;DHT22;4277;51.354;6.740;2022-10-19T14:32:10;14.10;99.90
8481;DHT22;4277;51.354;6.740;2022-10-19T14:34:40;14.10;99.90
8481;DHT22;4277;51.354;6.740;2022-10-19T14:37:13;14.10;99.90
8481;DHT22;4277;51.354;6.740;2022-10-19T14:39:40;14.20;99.90
8481;DHT22;4277;51.354;6.740;2022-10-19T14:42:09;14.20;99.90
8481;DHT22;4277;51.354;6.740;2022-10-19T14:44:37;14.20;99.90
8481;DHT22;4277;51.354;6.740;2022-10-19T14:47:23;14.20;99.90
8481;DHT22;4277;51.354;6.740;2022-10-19T14:49:51;14.10;99.90
8481;DHT22;4277;51.354;6.740;2022-10-19T14:52:35;14.20;99.90
8481;DHT22;4277;51.354;6.740;2022-10-19T14:55:09;14.20;99.90
8481;DHT22;4277;51.354;6.740;2022-10-19T14:57:36;14.20;99.90
8481;DHT22;4277;51.354;6.740;2022-10-19T15:00:06;14.10;99.90
8481;DHT22;4277;51.354;6.740;2022-10-19T15:02:44;14.10;99.90
8481;DHT22;4277;51.354;6.740;2022-10-19T15:05:22;14.10;99.90
8481;DHT22;4277;51.354;6.740;2022-10-19T15:07:48;14.10;99.90
8481;DHT22;4277;51.354;6.740;2022-10-19T15:10:25;14.20;99.90
8481;DHT22;4277;51.354;6.740;2022-10-19T15:13:00;14.20;99.90
8481;DHT22;4277;51.354;6.740;2022-10-19T15:15:28;14.20;99.90
8481;DHT22;4277;51.354;6.740;2022-10-19T15:20:35;14.30;99.90
8481;DHT22;4277;51.354;6.740;2022-10-19T15:23:24;14.30;99.90
8481;DHT22;4277;51.354;6.740;2022-10-19T15:26:02;14.30;99.90
8481;DHT22;4277;51.354;6.740;2022-10-19T15:30:59;14.20;99.90
8481;DHT22;4277;51.354;6.740;2022-10-19T15:33:25;14.20;99.90
8481;DHT22;4277;51.354;6.740;2022-10-19T15:35:51;14.20;99.90
8481;DHT22;4277;51.354;6.740;2022-10-19T15:38:26;14.20;99.90
8481;DHT22;4277;51.354;6.740;2022-10-19T15:40:57;14.20;99.90
8481;DHT22;4277;51.354;6.740;2022-10-19T15:46:20;14.20;99.90
8481;DHT22;4277;51.354;6.740;2022-10-19T15:48:47;14.20;99.90
8481;DHT22;4277;51.354;6.740;2022-10-19T15:54:05;14.00;99.90
8481;DHT22;4277;51.354;6.740;2022-10-19T15:56:34;14.00;99.90
8481;DHT22;4277;51.354;6.740;2022-10-19T15:59:02;14.00;99.90
8481;DHT22;4277;51.354;6.740;2022-10-19T16:01:30;13.90;99.90
8481;DHT22;4277;51.354;6.740;2022-10-19T16:03:57;13.80;99.90
8481;DHT22;4277;51.354;6.740;2022-10-19T16:06:28;13.80;99.90
8481;DHT22;4277;51.354;6.740;2022-10-19T16:08:54;13.70;99.90
8481;DHT22;4277;51.354;6.740;2022-10-19T16:11:21;13.60;99.90
8481;DHT22;4277;51.354;6.740;2022-10-19T16:13:47;13.60;99.90
8481;DHT22;4277;51.354;6.740;2022-10-19T16:16:23;13.60;99.90
8481;DHT22;4277;51.354;6.740;2022-10-19T16:18:49;13.50;99.90
8481;DHT22;4277;51.354;6.740;2022-10-19T16:21:16;13.40;99.90
8481;DHT22;4277;51.354;6.740;2022-10-19T16:23:41;13.40;99.90
8481;DHT22;4277;51.354;6.740;2022-10-19T16:26:07;13.30;99.90
8481;DHT22;4277;51.354;6.740;2022-10-19T16:28:33;13.30;99.90
8481;DHT22;4277;51.354;6.740;2022-10-19T16:30:58;13.20;99.90
8481;DHT22;4277;51.354;6.740;2022-10-19T16:33:24;13.20;99.90
8481;DHT22;4277;51.354;6.740;2022-10-19T16:35:49;13.10;99.90
8481;DHT22;4277;51.354;6.740;2022-10-19T16:38:15;13.10;99.90
8481;DHT22;4277;51.354;6.740;2022-10-19T16:40:41;13.00;99.90
8481;DHT22;4277;51.354;6.740;2022-10-19T16:43:07;13.00;99.90
8481;DHT22;4277;51.354;6.740;2022-10-19T16:45:33;12.90;99.90
8481;DHT22;4277;51.354;6.740;2022-10-19T16:47:59;12.80;99.90
8481;DHT22;4277;51.354;6.740;2022-10-19T16:50:25;12.80;99.90
8481;DHT22;4277;51.354;6.740;2022-10-19T16:53:04;12.80;99.90
8481;DHT22;4277;51.354;6.740;2022-10-19T16:55:29;12.70;99.90
8481;DHT22;4277;51.354;6.740;2022-10-19T16:57:55;12.70;99.90
8481;DHT22;4277;51.354;6.740;2022-10-19T17:00:21;12.70;99.90
8481;DHT22;4277;51.354;6.740;2022-10-19T17:02:46;12.60;99.90
8481;DHT22;4277;51.354;6.740;2022-10-19T17:05:12;12.60;99.90
8481;DHT22;4277;51.354;6.740;2022-10-19T17:07:37;12.60;99.90
8481;DHT22;4277;51.354;6.740;2022-10-19T17:10:03;12.50;99.90
8481;DHT22;4277;51.354;6.740;2022-10-19T17:12:29;12.50;99.90
8481;DHT22;4277;51.354;6.740;2022-10-19T17:14:54;12.50;99.90
8481;DHT22;4277;51.354;6.740;2022-10-19T17:17:20;12.50;99.90
8481;DHT22;4277;51.354;6.740;2022-10-19T17:19:45;12.40;99.90
8481;DHT22;4277;51.354;6.740;2022-10-19T17:22:12;12.40;99.90
8481;DHT22;4277;51.354;6.740;2022-10-19T17:24:38;12.40;99.90
8481;DHT22;4277;51.354;6.740;2022-10-19T17:27:03;12.30;99.90
8481;DHT22;4277;51.354;6.740;2022-10-19T17:29:29;12.30;99.90
8481;DHT22;4277;51.354;6.740;2022-10-19T17:31:55;12.30;99.90
8481;DHT22;4277;51.354;6.740;2022-10-19T17:34:20;12.30;99.90
8481;DHT22;4277;51.354;6.740;2022-10-19T17:36:46;12.20;99.90
8481;DHT22;4277;51.354;6.740;2022-10-19T17:39:17;12.20;99.90
8481;DHT22;4277;51.354;6.740;2022-10-19T17:41:48;12.20;99.90
8481;DHT22;4277;51.354;6.740;2022-10-19T17:44:14;12.20;99.90
8481;DHT22;4277;51.354;6.740;2022-10-19T17:46:40;12.10;99.90
8481;DHT22;4277;51.354;6.740;2022-10-19T17:49:06;12.10;99.90
8481;DHT22;4277;51.354;6.740;2022-10-19T17:51:34;12.10;99.90
8481;DHT22;4277;51.354;6.740;2022-10-19T17:54:05;12.00;99.90
8481;DHT22;4277;51.354;6.740;2022-10-19T17:56:32;11.90;99.90
8481;DHT22;4277;51.354;6.740;2022-10-19T17:58:58;11.80;99.90
8481;DHT22;4277;51.354;6.740;2022-10-19T18:01:25;11.80;99.90
8481;DHT22;4277;51.354;6.740;2022-10-19T18:03:50;11.80;99.90
8481;DHT22;4277;51.354;6.740;2022-10-19T18:06:23;11.80;99.90
8481;DHT22;4277;51.354;6.740;2022-10-19T18:08:54;11.80;99.90
8481;DHT22;4277;51.354;6.740;2022-10-19T18:11:25;11.80;99.90
8481;DHT22;4277;51.354;6.740;2022-10-19T18:13:54;11.70;99.90
8481;DHT22;4277;51.354;6.740;2022-10-19T18:16:26;11.80;99.90
8481;DHT22;4277;51.354;6.740;2022-10-19T18:18:54;11.80;99.90
8481;DHT22;4277;51.354;6.740;2022-10-19T18:21:31;11.80;99.90
8481;DHT22;4277;51.354;6.740;2022-10-19T18:23:59;11.80;99.90
8481;DHT22;4277;51.354;6.740;2022-10-19T18:26:28;11.70;99.90
8481;DHT22;4277;51.354;6.740;2022-10-19T18:28:54;11.70;99.90
8481;DHT22;4277;51.354;6.740;2022-10-19T18:31:22;11.70;99.90
8481;DHT22;4277;51.354;6.740;2022-10-19T18:33:55;11.60;99.90
8481;DHT22;4277;51.354;6.740;2022-10-19T18:36:21;11.60;99.90
8481;DHT22;4277;51.354;6.740;2022-10-19T18:38:51;11.50;99.90
8481;DHT22;4277;51.354;6.740;2022-10-19T18:41:17;11.50;99.90
8481;DHT22;4277;51.354;6.740;2022-10-19T18:43:42;11.50;99.90
8481;DHT22;4277;51.354;6.740;2022-10-19T18:46:08;11.40;99.90
8481;DHT22;4277;51.354;6.740;2022-10-19T18:48:36;11.30;99.90
8481;DHT22;4277;51.354;6.740;2022-10-19T18:51:04;11.30;99.90
8481;DHT22;4277;51.354;6.740;2022-10-19T18:53:31;11.30;99.90
8481;DHT22;4277;51.354;6.740;2022-10-19T18:56:02;11.30;99.90
8481;DHT22;4277;51.354;6.740;2022-10-19T18:58:27;11.30;99.90
8481;DHT22;4277;51.354;6.740;2022-10-19T19:01:13;11.30;99.90
8481;DHT22;4277;51.354;6.740;2022-10-19T19:03:41;11.20;99.90
8481;DHT22;4277;51.354;6.740;2022-10-19T19:06:13;11.20;99.90
8481;DHT22;4277;51.354;6.740;2022-10-19T19:08:38;11.10;99.90
8481;DHT22;4277;51.354;6.740;2022-10-19T19:11:12;10.90;99.90
8481;DHT22;4277;51.354;6.740;2022-10-19T19:13:39;10.90;99.90
8481;DHT22;4277;51.354;6.740;2022-10-19T19:16:05;10.80;99.90
8481;DHT22;4277;51.354;6.740;2022-10-19T19:18:31;10.90;99.90
8481;DHT22;4277;51.354;6.740;2022-10-19T19:20:59;10.90;99.90
8481;DHT22;4277;51.354;6.740;2022-10-19T19:23:24;10.90;99.90
8481;DHT22;4277;51.354;6.740;2022-10-19T19:25:50;10.90;99.90
8481;DHT22;4277;51.354;6.740;2022-10-19T19:28:16;10.90;99.90
8481;DHT22;4277;51.354;6.740;2022-10-19T19:30:43;10.80;99.90
8481;DHT22;4277;51.354;6.740;2022-10-19T19:33:09;10.80;99.90
8481;DHT22;4277;51.354;6.740;2022-10-19T19:35:45;10.80;99.90
8481;DHT22;4277;51.354;6.740;2022-10-19T19:38:11;10.80;99.90
8481;DHT22;4277;51.354;6.740;2022-10-19T19:40:39;10.70;99.90
8481;DHT22;4277;51.354;6.740;2022-10-19T19:43:05;10.70;99.90
